Time;durP1;ratioP1;P1;durP2;ratioP2;P2;SDS_P1;SDS_P2;PMS_P1;PMS_P2;Temp;Humidity;BMP_temperature;BMP_pressure;BME280_temperature;BME280_humidity;BME280_pressure;Samples;Min_cycle;Max_cycle;Signal;HPM_P1;HPM_P2
2021/08/27 00:00:03;;;;;;;8.95;2.97;;;19.40;80.90;;;;;;5059702;28;20020;-60
2021/08/27 00:02:28;;;;;;;4.75;3.05;;;19.50;81.00;;;;;;5058594;28;20150;-60
2021/08/27 00:04:54;;;;;;;3.95;2.90;;;19.50;81.00;;;;;;5063119;28;20138;-60
2021/08/27 00:07:19;;;;;;;4.68;2.88;;;19.40;81.00;;;;;;5047052;28;20062;-61
2021/08/27 00:09:45;;;;;;;5.78;2.95;;;19.40;81.00;;;;;;5045741;28;20449;-60
2021/08/27 00:12:11;;;;;;;3.97;2.95;;;19.40;81.00;;;;;;5067540;28;20059;-61
2021/08/27 00:14:36;;;;;;;5.15;2.92;;;19.50;81.10;;;;;;5071033;28;20037;-61
2021/08/27 00:17:02;;;;;;;5.75;3.25;;;19.40;81.00;;;;;;5026232;28;20170;-60
2021/08/27 00:19:27;;;;;;;3.60;3.00;;;19.40;81.00;;;;;;5069570;28;20418;-60
2021/08/27 00:21:53;;;;;;;3.72;3.00;;;19.30;80.90;;;;;;5034675;28;20494;-61
2021/08/27 00:24:18;;;;;;;4.63;3.05;;;19.40;80.90;;;;;;5067568;28;20036;-60
2021/08/27 00:26:44;;;;;;;6.13;3.40;;;19.40;80.80;;;;;;5050535;28;20041;-60
2021/08/27 00:29:10;;;;;;;4.07;2.92;;;19.40;80.60;;;;;;5042566;28;20087;-61
2021/08/27 00:31:35;;;;;;;5.50;3.00;;;19.40;80.60;;;;;;5071332;28;20372;-61
2021/08/27 00:34:01;;;;;;;3.80;3.03;;;19.40;80.50;;;;;;5067297;28;20025;-60
2021/08/27 00:36:27;;;;;;;3.75;2.80;;;19.40;80.60;;;;;;5069861;28;20333;-61
2021/08/27 00:38:52;;;;;;;3.47;3.05;;;19.30;80.50;;;;;;5061196;28;20318;-61
2021/08/27 00:41:18;;;;;;;5.13;3.00;;;19.30;80.40;;;;;;5052418;28;20043;-61
2021/08/27 00:43:44;;;;;;;5.45;2.78;;;19.30;80.40;;;;;;5072046;28;20043;-61
2021/08/27 00:46:09;;;;;;;3.17;2.70;;;19.30;80.50;;;;;;5066719;28;20028;-60
2021/08/27 00:48:35;;;;;;;3.30;2.50;;;19.30;80.50;;;;;;5036908;28;20046;-61
2021/08/27 00:51:00;;;;;;;3.72;2.97;;;19.30;80.40;;;;;;5063639;28;20459;-61
2021/08/27 00:53:26;;;;;;;6.97;3.10;;;19.30;80.40;;;;;;5066348;28;20043;-60
2021/08/27 00:55:52;;;;;;;4.93;2.85;;;19.30;80.40;;;;;;5033801;28;20056;-60
2021/08/27 00:58:17;;;;;;;3.08;2.78;;;19.30;80.30;;;;;;5053391;28;20044;-61
2021/08/27 01:00:43;;;;;;;4.82;2.92;;;19.30;80.20;;;;;;5045880;28;20036;-60
2021/08/27 01:03:09;;;;;;;5.65;2.97;;;19.30;80.20;;;;;;5064546;28;20072;-60
2021/08/27 01:05:39;;;;;;;4.78;2.90;;;19.30;80.10;;;;;;5049782;28;20462;-60
2021/08/27 01:08:18;;;;;;;6.88;3.60;;;19.30;80.00;;;;;;5037602;28;20029;-60
2021/08/27 01:10:52;;;;;;;7.18;4.22;;;19.20;79.90;;;;;;5056168;28;20458;-60
2021/08/27 01:13:32;;;;;;;5.80;4.78;;;19.20;79.70;;;;;;5044895;28;20039;-61
2021/08/27 01:16:17;;;;;;;5.28;3.97;;;19.20;79.70;;;;;;5046876;28;20112;-61
2021/08/27 01:19:15;;;;;;;6.53;4.20;;;19.20;80.30;;;;;;5008499;28;20048;-62
2021/08/27 01:21:48;;;;;;;5.40;4.13;;;19.20;79.60;;;;;;5010095;28;20114;-61
2021/08/27 01:24:13;;;;;;;6.07;3.85;;;19.20;79.70;;;;;;5025036;28;20028;-62
2021/08/27 01:26:48;;;;;;;4.57;3.45;;;19.20;79.50;;;;;;5011543;28;20329;-62
2021/08/27 01:29:14;;;;;;;8.27;4.07;;;19.20;79.50;;;;;;5013118;28;20013;-61
2021/08/27 01:31:52;;;;;;;5.53;3.45;;;19.20;79.20;;;;;;5009388;28;20506;-61
2021/08/27 01:34:29;;;;;;;5.90;3.38;;;19.20;79.20;;;;;;5012515;28;20033;-61
2021/08/27 01:36:55;;;;;;;5.53;3.47;;;19.10;79.00;;;;;;5012700;28;20539;-61
2021/08/27 01:39:25;;;;;;;4.22;2.97;;;19.20;79.00;;;;;;5034921;28;20025;-61
2021/08/27 01:41:52;;;;;;;6.22;3.60;;;19.10;78.90;;;;;;5010995;28;20029;-60
2021/08/27 01:44:17;;;;;;;4.07;2.92;;;19.10;78.90;;;;;;5005015;28;20051;-62
2021/08/27 01:46:43;;;;;;;3.90;3.25;;;19.10;78.90;;;;;;5025018;28;20151;-61
2021/08/27 01:49:09;;;;;;;4.18;3.00;;;19.10;79.00;;;;;;5010147;28;20044;-62
2021/08/27 01:51:35;;;;;;;5.53;3.10;;;19.10;78.90;;;;;;5013999;28;20413;-62
2021/08/27 01:54:01;;;;;;;4.70;3.28;;;19.00;78.90;;;;;;5049680;28;20035;-62
2021/08/27 01:56:26;;;;;;;7.50;3.08;;;19.00;78.80;;;;;;5029726;28;20567;-61
2021/08/27 01:58:52;;;;;;;5.85;2.97;;;19.00;78.80;;;;;;5008942;28;20040;-61
2021/08/27 02:01:17;;;;;;;6.07;2.97;;;19.00;78.70;;;;;;5015284;28;20037;-61
2021/08/27 02:03:43;;;;;;;7.90;3.47;;;19.10;78.70;;;;;;5026958;28;20021;-62
2021/08/27 02:06:09;;;;;;;6.97;2.88;;;19.00;78.70;;;;;;5031637;28;20045;-62
2021/08/27 02:08:34;;;;;;;4.82;2.90;;;19.00;78.60;;;;;;5014481;28;20241;-61
2021/08/27 02:11:00;;;;;;;6.43;3.55;;;19.00;78.60;;;;;;5029707;28;20120;-62
2021/08/27 02:13:25;;;;;;;6.32;3.03;;;19.00;78.60;;;;;;5011932;28;20445;-62
2021/08/27 02:15:51;;;;;;;5.40;2.95;;;19.00;78.60;;;;;;5033962;28;20064;-62
2021/08/27 02:18:16;;;;;;;4.78;3.13;;;19.00;78.50;;;;;;5008023;28;20053;-62
2021/08/27 02:20:42;;;;;;;6.70;2.83;;;19.00;78.40;;;;;;5066510;28;20314;-61
2021/08/27 02:23:07;;;;;;;4.15;3.22;;;19.00;78.40;;;;;;5043732;28;20052;-62
2021/08/27 02:25:34;;;;;;;4.53;3.08;;;18.90;78.40;;;;;;5028645;28;20103;-61
2021/08/27 02:28:03;;;;;;;5.00;2.90;;;18.90;78.40;;;;;;5062190;28;20058;-61
2021/08/27 02:30:31;;;;;;;6.75;2.90;;;18.90;78.30;;;;;;5040880;28;20055;-61
2021/08/27 02:32:58;;;;;;;4.97;2.88;;;18.90;78.30;;;;;;5042847;28;20032;-62
2021/08/27 02:35:23;;;;;;;6.40;3.17;;;18.90;78.30;;;;;;5027547;28;20041;-62
2021/08/27 02:37:49;;;;;;;4.35;2.65;;;18.90;78.30;;;;;;5028772;28;20039;-61
2021/08/27 02:40:14;;;;;;;7.85;2.63;;;18.90;78.30;;;;;;5025901;28;20200;-61
2021/08/27 02:42:40;;;;;;;6.88;3.63;;;18.90;78.40;;;;;;5070724;28;20016;-62
2021/08/27 02:45:06;;;;;;;6.20;2.95;;;18.90;78.40;;;;;;5030030;28;20129;-62
2021/08/27 02:47:31;;;;;;;5.47;3.15;;;18.90;78.40;;;;;;5044890;28;20028;-61
2021/08/27 02:49:57;;;;;;;5.70;3.58;;;18.90;78.40;;;;;;5040791;28;20032;-61
2021/08/27 02:52:43;;;;;;;8.18;3.78;;;18.90;78.50;;;;;;5048799;28;20403;-61
2021/08/27 02:55:09;;;;;;;;;;;18.90;78.50;;;;;;5060567;28;20051;-61
2021/08/27 02:57:44;;;;;;;9.10;3.55;;;18.90;78.50;;;;;;5047246;28;19998;-61
2021/08/27 03:00:10;;;;;;;9.00;3.45;;;18.80;78.40;;;;;;5043588;28;20400;-60
2021/08/27 03:02:35;;;;;;;6.38;3.42;;;18.80;78.50;;;;;;5042629;28;20051;-61
2021/08/27 03:05:03;;;;;;;6.32;3.47;;;18.80;78.50;;;;;;5028875;28;20483;-61
2021/08/27 03:07:29;;;;;;;6.03;3.60;;;18.80;78.50;;;;;;5042013;28;20404;-60
2021/08/27 03:10:14;;;;;;;6.75;3.35;;;18.80;79.10;;;;;;5070399;28;20041;-60
2021/08/27 03:13:09;;;;;;;6.95;3.35;;;18.80;78.40;;;;;;5045533;28;20086;-59
2021/08/27 03:15:46;;;;;;;5.38;3.28;;;18.80;78.40;;;;;;5041861;28;20036;-60
2021/08/27 03:18:44;;;;;;;5.93;3.17;;;18.80;78.30;;;;;;5042274;28;20049;-60
2021/08/27 03:21:20;;;;;;;7.75;3.70;;;18.80;78.30;;;;;;5046416;28;20115;-60
2021/08/27 03:23:48;;;;;;;5.22;3.05;;;18.80;78.20;;;;;;5043773;28;20032;-59
2021/08/27 03:26:22;;;;;;;15.10;3.75;;;18.80;78.20;;;;;;5026989;28;20068;-60
2021/08/27 03:28:54;;;;;;;19.65;4.38;;;18.70;78.00;;;;;;5027195;28;20048;-59
2021/08/27 03:31:22;;;;;;;40.90;5.57;;;18.70;78.10;;;;;;5046048;28;20020;-59
2021/08/27 03:33:48;;;;;;;44.05;6.28;;;18.70;78.70;;;;;;5027979;28;20055;-59
2021/08/27 03:36:13;;;;;;;38.78;6.05;;;18.70;78.00;;;;;;5012018;28;20048;-59
2021/08/27 03:38:39;;;;;;;38.72;6.90;;;18.70;78.00;;;;;;5043581;28;20512;-59
2021/08/27 03:41:04;;;;;;;35.78;6.70;;;18.70;78.00;;;;;;5023032;28;20603;-59
2021/08/27 03:43:30;;;;;;;42.65;7.43;;;18.70;78.10;;;;;;5026789;28;20038;-59
2021/08/27 03:45:55;;;;;;;43.38;6.88;;;18.70;78.00;;;;;;5040215;28;20044;-59
2021/08/27 03:48:21;;;;;;;38.22;6.68;;;18.70;78.00;;;;;;5027679;28;20074;-60
2021/08/27 03:50:50;;;;;;;48.63;7.35;;;18.70;78.10;;;;;;5011838;28;20031;-59
2021/08/27 03:53:15;;;;;;;38.97;7.38;;;18.70;78.00;;;;;;5030197;28;20093;-59
2021/08/27 03:55:41;;;;;;;55.35;6.57;;;18.70;78.10;;;;;;5024238;28;20041;-59
2021/08/27 03:58:09;;;;;;;41.92;6.57;;;18.60;78.10;;;;;;5027666;28;20060;-59
2021/08/27 04:00:34;;;;;;;52.70;6.47;;;18.60;78.10;;;;;;5007715;28;20493;-60
2021/08/27 04:03:00;;;;;;;26.95;5.35;;;18.60;78.10;;;;;;5046372;28;20068;-60
2021/08/27 04:05:25;;;;;;;25.90;5.25;;;18.60;78.00;;;;;;5041518;28;20219;-59
2021/08/27 04:07:51;;;;;;;32.65;6.40;;;18.70;78.20;;;;;;5043875;28;20062;-59
2021/08/27 04:10:18;;;;;;;24.95;5.43;;;18.60;78.10;;;;;;5042868;28;20025;-59
2021/08/27 04:12:44;;;;;;;22.20;4.75;;;18.60;78.20;;;;;;5027514;28;20034;-60
2021/08/27 04:15:11;;;;;;;32.38;5.03;;;18.60;78.20;;;;;;5050683;28;20102;-60
2021/08/27 04:17:37;;;;;;;36.53;5.53;;;18.60;78.30;;;;;;5042851;28;20492;-59
2021/08/27 04:20:07;;;;;;;44.53;5.82;;;18.60;78.40;;;;;;5022563;28;20024;-60
2021/08/27 04:22:33;;;;;;;35.45;5.75;;;18.60;78.50;;;;;;5050641;28;20050;-60
2021/08/27 04:24:58;;;;;;;24.35;6.20;;;18.60;78.60;;;;;;5022159;28;20044;-59
2021/08/27 04:27:24;;;;;;;29.38;7.82;;;18.60;78.60;;;;;;5067947;28;20024;-59
2021/08/27 04:29:50;;;;;;;39.63;7.03;;;18.60;78.60;;;;;;5046089;28;20043;-59
2021/08/27 04:32:16;;;;;;;32.25;7.72;;;18.60;78.60;;;;;;5031562;28;20112;-59
2021/08/27 04:34:41;;;;;;;21.88;6.78;;;18.50;78.70;;;;;;5067328;28;20120;-60
2021/08/27 04:37:07;;;;;;;24.02;6.35;;;18.50;78.70;;;;;;5043319;28;20533;-59
2021/08/27 04:39:32;;;;;;;27.65;5.32;;;18.50;78.80;;;;;;5045473;28;20045;-59
2021/08/27 04:41:59;;;;;;;26.60;5.75;;;18.50;78.90;;;;;;5068691;28;20036;-59
2021/08/27 04:44:25;;;;;;;22.67;5.40;;;18.50;78.90;;;;;;5051863;28;20025;-60
2021/08/27 04:46:51;;;;;;;24.92;5.45;;;18.40;78.90;;;;;;5042160;28;20176;-60
2021/08/27 04:49:16;;;;;;;24.48;4.95;;;18.40;78.90;;;;;;5047040;28;20046;-60
2021/08/27 04:51:42;;;;;;;20.38;4.90;;;18.40;78.90;;;;;;5066681;28;20029;-59
2021/08/27 04:54:07;;;;;;;364.92;29.13;;;18.40;78.80;;;;;;5070315;28;20107;-60
2021/08/27 04:56:33;;;;;;;234.90;19.17;;;18.40;79.00;;;;;;5044120;28;20076;-59
2021/08/27 04:58:58;;;;;;;78.47;9.63;;;18.40;79.10;;;;;;5062528;28;20068;-59
2021/08/27 05:01:24;;;;;;;29.92;6.03;;;18.40;79.30;;;;;;5062912;28;20080;-60
2021/08/27 05:03:49;;;;;;;48.58;6.57;;;18.30;79.20;;;;;;5072409;28;20244;-59
2021/08/27 05:06:15;;;;;;;49.03;7.07;;;18.30;79.40;;;;;;5073937;28;20055;-59
2021/08/27 05:08:40;;;;;;;30.13;4.90;;;18.30;79.40;;;;;;5033533;28;20499;-59
2021/08/27 05:11:06;;;;;;;25.88;5.63;;;18.50;79.50;;;;;;5060332;28;20063;-59
2021/08/27 05:13:31;;;;;;;37.15;5.20;;;18.30;79.50;;;;;;5061233;28;20512;-59
2021/08/27 05:15:57;;;;;;;34.70;5.75;;;18.30;79.50;;;;;;5047814;28;20032;-59
2021/08/27 05:18:22;;;;;;;27.83;5.22;;;18.30;79.50;;;;;;5070425;28;20053;-59
2021/08/27 05:20:48;;;;;;;33.97;5.97;;;18.30;79.50;;;;;;5033937;28;20025;-59
2021/08/27 05:23:13;;;;;;;35.88;5.72;;;18.20;79.40;;;;;;5065811;28;20875;-59
2021/08/27 05:25:39;;;;;;;27.05;5.50;;;18.30;79.50;;;;;;5037101;28;20119;-60
2021/08/27 05:28:04;;;;;;;29.90;5.97;;;18.30;79.40;;;;;;5066864;28;20139;-59
2021/08/27 05:30:30;;;;;;;33.03;5.55;;;18.30;79.50;;;;;;5070627;28;20425;-59
2021/08/27 05:32:55;;;;;;;26.58;5.10;;;18.30;79.50;;;;;;5028638;28;20556;-60
2021/08/27 05:35:21;;;;;;;24.25;5.18;;;18.20;79.50;;;;;;5035350;28;21013;-59
2021/08/27 05:37:47;;;;;;;25.52;4.88;;;18.20;79.50;;;;;;5062958;28;20101;-59
2021/08/27 05:40:13;;;;;;;24.85;4.25;;;18.20;79.50;;;;;;5031302;28;20163;-59
2021/08/27 05:42:38;;;;;;;24.27;4.53;;;18.20;79.60;;;;;;5045417;28;20104;-59
2021/08/27 05:45:05;;;;;;;19.02;4.55;;;18.20;79.60;;;;;;5041128;28;20064;-59
2021/08/27 05:47:30;;;;;;;19.48;4.63;;;18.20;79.70;;;;;;5050162;28;20472;-60
2021/08/27 05:49:57;;;;;;;18.90;4.90;;;18.20;79.80;;;;;;5046335;28;20101;-59
2021/08/27 05:52:23;;;;;;;15.00;4.40;;;18.10;80.00;;;;;;5044323;28;20040;-60
2021/08/27 05:54:48;;;;;;;22.45;5.03;;;18.10;80.20;;;;;;5049341;28;20043;-60
2021/08/27 05:57:14;;;;;;;14.10;4.30;;;18.00;80.50;;;;;;5029129;28;20028;-59
2021/08/27 05:59:39;;;;;;;12.82;4.28;;;18.00;80.80;;;;;;5029741;28;20111;-59
2021/08/27 06:02:05;;;;;;;8.70;3.80;;;17.90;81.00;;;;;;5064095;28;20036;-59
2021/08/27 06:04:30;;;;;;;8.70;3.70;;;17.90;81.00;;;;;;5042712;28;20045;-60
2021/08/27 06:06:57;;;;;;;7.50;3.42;;;17.90;81.30;;;;;;5044725;28;20047;-59
2021/08/27 06:09:22;;;;;;;7.90;3.67;;;17.90;81.60;;;;;;5068358;28;20093;-60
2021/08/27 06:11:48;;;;;;;9.32;3.38;;;17.80;81.80;;;;;;5045647;28;20494;-59
2021/08/27 06:14:13;;;;;;;8.70;3.42;;;17.80;82.00;;;;;;5056471;28;20448;-59
2021/08/27 06:16:39;;;;;;;11.80;3.95;;;17.80;82.40;;;;;;5030928;28;20314;-60
2021/08/27 06:19:04;;;;;;;9.90;3.25;;;17.80;82.80;;;;;;5068143;28;20103;-59
2021/08/27 06:21:31;;;;;;;12.13;3.88;;;17.70;82.80;;;;;;5026849;28;20082;-60
2021/08/27 06:23:57;;;;;;;12.15;3.85;;;17.70;82.90;;;;;;5046797;28;20028;-59
2021/08/27 06:26:22;;;;;;;16.80;4.05;;;17.70;83.10;;;;;;5062187;28;20036;-60
2021/08/27 06:28:48;;;;;;;37.15;5.65;;;17.70;83.70;;;;;;5063186;28;20063;-59
2021/08/27 06:31:14;;;;;;;51.30;6.63;;;17.70;83.70;;;;;;5029388;28;20117;-59
2021/08/27 06:33:39;;;;;;;23.23;5.10;;;17.70;84.10;;;;;;5031785;28;20115;-62
2021/08/27 06:36:05;;;;;;;39.58;5.18;;;17.70;83.80;;;;;;5045657;28;20423;-60
2021/08/27 06:38:30;;;;;;;71.13;9.27;;;17.70;83.70;;;;;;5028554;28;20432;-60
2021/08/27 06:40:58;;;;;;;39.95;6.72;;;17.70;83.40;;;;;;5041759;28;20055;-59
2021/08/27 06:43:27;;;;;;;114.22;10.82;;;17.70;82.80;;;;;;5059186;28;20055;-59
2021/08/27 06:45:53;;;;;;;28.63;6.18;;;17.70;82.60;;;;;;5034103;28;20059;-59
2021/08/27 06:48:19;;;;;;;57.92;5.35;;;17.70;82.50;;;;;;5047742;28;20356;-59
2021/08/27 06:50:44;;;;;;;21.77;4.75;;;17.70;82.40;;;;;;5044619;28;20310;-59
2021/08/27 06:53:10;;;;;;;27.67;5.45;;;17.70;82.20;;;;;;5055113;28;20037;-60
2021/08/27 06:55:35;;;;;;;33.45;6.35;;;17.70;82.40;;;;;;5066458;28;20054;-59
2021/08/27 06:58:02;;;;;;;43.63;7.50;;;17.70;82.50;;;;;;5055222;28;20024;-59
2021/08/27 07:00:27;;;;;;;35.58;5.57;;;17.70;82.40;;;;;;5033019;28;20024;-59
2021/08/27 07:02:53;;;;;;;40.38;5.70;;;17.70;82.30;;;;;;5049588;28;20067;-59
2021/08/27 07:05:18;;;;;;;37.28;4.95;;;17.70;82.10;;;;;;5038730;28;20044;-59
2021/08/27 07:07:44;;;;;;;41.25;5.55;;;17.70;81.90;;;;;;5040148;28;20194;-59
2021/08/27 07:10:10;;;;;;;32.28;5.53;;;17.60;81.90;;;;;;5059651;28;20116;-59
2021/08/27 07:12:35;;;;;;;25.50;5.13;;;17.60;81.70;;;;;;5028134;28;20047;-59
2021/08/27 07:15:01;;;;;;;41.90;6.10;;;17.60;81.70;;;;;;5032078;28;20472;-59
2021/08/27 07:17:26;;;;;;;51.22;5.68;;;17.60;81.80;;;;;;5068345;28;20057;-60
2021/08/27 07:19:52;;;;;;;38.42;7.20;;;17.60;81.40;;;;;;5061668;28;20066;-59
2021/08/27 07:22:17;;;;;;;35.65;5.65;;;17.60;81.40;;;;;;5055865;28;20539;-60
2021/08/27 07:24:43;;;;;;;27.48;5.57;;;17.60;81.00;;;;;;5041685;28;20120;-59
2021/08/27 07:27:10;;;;;;;35.58;5.65;;;17.60;80.70;;;;;;5060057;28;20041;-59
2021/08/27 07:29:36;;;;;;;31.20;4.88;;;17.60;80.30;;;;;;5042557;28;20028;-60
2021/08/27 07:32:02;;;;;;;119.65;12.60;;;17.60;79.80;;;;;;5042598;28;20041;-60
2021/08/27 07:34:27;;;;;;;37.55;5.68;;;17.60;79.80;;;;;;5063164;28;20850;-59
2021/08/27 07:36:53;;;;;;;53.50;7.85;;;17.60;79.70;;;;;;5041932;28;20116;-59
2021/08/27 07:39:18;;;;;;;98.68;12.18;;;17.60;79.70;;;;;;5066593;28;20107;-59
2021/08/27 07:41:44;;;;;;;39.05;6.20;;;17.60;79.90;;;;;;5063339;28;20132;-59
2021/08/27 07:44:10;;;;;;;61.58;6.20;;;17.60;79.50;;;;;;5065252;28;20048;-59
2021/08/27 07:46:37;;;;;;;36.15;5.50;;;17.60;78.80;;;;;;5009217;28;20106;-60
2021/08/27 07:49:02;;;;;;;41.10;6.13;;;17.60;78.50;;;;;;5030350;28;20039;-61
2021/08/27 07:51:28;;;;;;;49.60;6.00;;;17.60;78.30;;;;;;5056554;28;20029;-60
2021/08/27 07:53:53;;;;;;;69.93;8.23;;;17.60;78.40;;;;;;5055577;28;20482;-60
2021/08/27 07:56:19;;;;;;;54.50;8.10;;;17.60;78.60;;;;;;5050014;28;20128;-60
2021/08/27 07:58:45;;;;;;;43.88;7.88;;;17.70;78.20;;;;;;5042033;28;20127;-60
2021/08/27 08:01:11;;;;;;;71.63;8.27;;;17.70;78.30;;;;;;5022006;28;20173;-60
2021/08/27 08:03:37;;;;;;;73.32;7.63;;;17.70;78.30;;;;;;5049929;28;20106;-60
2021/08/27 08:06:02;;;;;;;56.95;6.25;;;17.80;78.40;;;;;;5044451;28;20028;-60
2021/08/27 08:08:28;;;;;;;59.88;7.40;;;17.80;78.20;;;;;;5045522;28;20020;-60
2021/08/27 08:10:53;;;;;;;75.68;8.88;;;17.80;78.20;;;;;;5039547;28;20365;-61
2021/08/27 08:13:19;;;;;;;43.08;6.90;;;17.90;78.20;;;;;;5057845;28;21516;-60
2021/08/27 08:15:44;;;;;;;53.47;6.47;;;17.90;77.90;;;;;;5041739;28;20040;-60
2021/08/27 08:18:10;;;;;;;76.30;8.75;;;18.00;77.60;;;;;;5060202;28;20048;-60
2021/08/27 08:20:35;;;;;;;73.07;9.23;;;18.00;77.20;;;;;;5059371;28;20012;-60
2021/08/27 08:23:01;;;;;;;76.93;9.13;;;18.00;77.40;;;;;;5062198;28;20639;-60
2021/08/27 08:25:27;;;;;;;162.32;15.73;;;18.00;77.40;;;;;;5038191;28;20040;-60
2021/08/27 08:27:52;;;;;;;99.07;11.13;;;18.10;77.40;;;;;;5028251;28;20081;-60
2021/08/27 08:30:18;;;;;;;109.30;10.75;;;18.10;77.10;;;;;;5044621;28;20044;-60
2021/08/27 08:32:43;;;;;;;107.55;13.32;;;18.10;77.00;;;;;;5065076;28;20074;-61
2021/08/27 08:35:09;;;;;;;90.85;10.93;;;18.10;77.00;;;;;;5045951;28;20112;-60
2021/08/27 08:37:41;;;;;;;99.35;12.00;;;18.20;76.70;;;;;;5064947;28;20028;-61
2021/08/27 08:40:09;;;;;;;122.90;14.07;;;18.20;76.40;;;;;;5037597;28;20048;-60
2021/08/27 08:42:35;;;;;;;165.07;16.88;;;18.20;76.40;;;;;;5040701;28;20040;-60
2021/08/27 08:45:02;;;;;;;96.03;12.13;;;18.20;76.40;;;;;;5027635;28;20036;-60
2021/08/27 08:47:28;;;;;;;104.22;9.52;;;18.30;76.10;;;;;;5037087;28;20088;-60
2021/08/27 08:49:54;;;;;;;105.28;12.48;;;18.30;75.90;;;;;;5005829;28;20036;-61
2021/08/27 08:52:22;;;;;;;105.03;12.48;;;18.30;75.40;;;;;;5006198;28;20122;-60
2021/08/27 08:54:48;;;;;;;86.18;10.70;;;18.30;75.50;;;;;;5038019;28;20778;-61
2021/08/27 08:57:14;;;;;;;78.53;10.13;;;18.30;75.50;;;;;;5041566;28;20108;-60
2021/08/27 08:59:39;;;;;;;95.90;11.23;;;18.40;75.70;;;;;;5042366;28;20467;-60
2021/08/27 09:02:07;;;;;;;109.55;12.63;;;18.40;75.50;;;;;;5022502;28;20568;-60
2021/08/27 09:04:33;;;;;;;67.40;9.32;;;18.30;75.40;;;;;;5056053;28;20079;-60
2021/08/27 09:06:59;;;;;;;67.13;7.68;;;18.30;75.50;;;;;;5037898;28;20031;-61
2021/08/27 09:09:33;;;;;;;66.40;9.35;;;18.40;75.40;;;;;;5030190;28;20897;-60
2021/08/27 09:11:58;;;;;;;93.93;10.60;;;18.30;75.30;;;;;;5040429;28;20032;-60
2021/08/27 09:14:28;;;;;;;98.80;10.82;;;18.40;75.40;;;;;;5056289;28;20029;-60
2021/08/27 09:17:04;;;;;;;98.82;12.27;;;18.40;75.70;;;;;;5042877;28;20690;-60
2021/08/27 09:19:51;;;;;;;;;;;18.40;75.70;;;;;;5022154;28;20022;-60
2021/08/27 09:22:16;;;;;;;;;;;18.40;75.70;;;;;;5056526;28;19916;-60
2021/08/27 09:24:42;;;;;;;142.57;15.77;;;18.50;75.60;;;;;;5037693;28;19939;-60
2021/08/27 09:27:08;;;;;;;89.70;10.05;;;18.40;75.50;;;;;;5046070;28;20044;-60
2021/08/27 09:29:38;;;;;;;203.10;20.17;;;18.50;75.50;;;;;;5058144;28;20032;-60
2021/08/27 09:32:18;;;;;;;76.38;10.65;;;18.50;74.90;;;;;;5027469;28;20055;-60
2021/08/27 09:34:44;;;;;;;64.18;8.68;;;18.50;74.60;;;;;;5044020;28;20460;-60
2021/08/27 09:37:09;;;;;;;66.53;8.38;;;18.50;74.10;;;;;;5028420;28;20024;-60
2021/08/27 09:39:35;;;;;;;51.38;7.22;;;18.60;73.60;;;;;;5040954;28;20147;-61
2021/08/27 09:42:01;;;;;;;92.20;9.82;;;18.60;72.90;;;;;;5022237;28;20029;-60
2021/08/27 09:44:27;;;;;;;59.42;9.75;;;18.60;71.80;;;;;;5027067;28;20500;-61
2021/08/27 09:46:52;;;;;;;49.35;7.85;;;18.60;71.90;;;;;;5058842;28;20028;-60
2021/08/27 09:49:28;;;;;;;86.78;11.00;;;18.70;71.20;;;;;;5043550;28;20036;-60
2021/08/27 09:51:54;;;;;;;59.75;8.30;;;18.50;70.90;;;;;;5037955;28;20848;-60
2021/08/27 09:54:27;;;;;;;67.65;8.90;;;18.70;70.30;;;;;;5043265;28;20039;-60
2021/08/27 09:56:55;;;;;;;61.83;7.50;;;18.70;70.40;;;;;;5041083;28;20576;-60
2021/08/27 09:59:43;;;;;;;91.25;9.95;;;18.70;70.00;;;;;;5052899;28;20032;-61
2021/08/27 10:02:10;;;;;;;103.28;10.90;;;18.80;69.80;;;;;;5055242;28;20039;-60
2021/08/27 10:04:50;;;;;;;70.30;8.70;;;18.80;69.60;;;;;;5039062;28;20028;-60
2021/08/27 10:07:28;;;;;;;57.53;8.63;;;18.80;69.80;;;;;;5054561;28;20112;-61
2021/08/27 10:09:53;;;;;;;90.50;9.48;;;18.80;68.70;;;;;;5037099;28;20064;-60
2021/08/27 10:12:19;;;;;;;110.38;10.15;;;18.80;68.70;;;;;;5036777;28;20738;-61
2021/08/27 10:14:45;;;;;;;87.10;11.10;;;18.90;69.10;;;;;;5023402;28;20032;-60
2021/08/27 10:17:11;;;;;;;64.60;8.90;;;18.90;69.10;;;;;;5061604;28;20053;-61
2021/08/27 10:19:36;;;;;;;72.18;9.82;;;18.90;69.10;;;;;;5056205;28;20043;-60
2021/08/27 10:22:03;;;;;;;78.93;10.10;;;19.00;69.00;;;;;;5040177;28;20535;-60
2021/08/27 10:24:29;;;;;;;89.70;11.35;;;19.00;68.90;;;;;;5059035;28;20036;-60
2021/08/27 10:26:54;;;;;;;94.25;11.05;;;19.00;69.20;;;;;;5034637;28;20413;-61
2021/08/27 10:29:20;;;;;;;105.88;11.55;;;19.10;69.10;;;;;;5034695;28;20020;-60
2021/08/27 10:31:47;;;;;;;69.90;10.23;;;19.10;68.70;;;;;;5025848;28;20135;-60
2021/08/27 10:34:14;;;;;;;60.30;7.60;;;19.20;68.20;;;;;;5033381;28;20016;-59
2021/08/27 10:36:43;;;;;;;101.13;10.48;;;19.20;68.20;;;;;;5062635;28;20041;-60
2021/08/27 10:39:09;;;;;;;79.72;11.52;;;19.20;68.60;;;;;;5051013;28;20816;-60
2021/08/27 10:41:36;;;;;;;108.68;12.90;;;19.20;68.60;;;;;;5019213;28;20023;-60
2021/08/27 10:44:12;;;;;;;75.53;9.30;;;19.30;68.60;;;;;;5052997;28;20028;-60
2021/08/27 10:46:46;;;;;;;101.40;11.90;;;19.30;68.50;;;;;;5054575;28;20029;-60
2021/08/27 10:49:14;;;;;;;96.15;10.05;;;19.30;68.40;;;;;;5049211;28;20123;-62
2021/08/27 10:51:41;;;;;;;77.07;9.75;;;19.30;68.30;;;;;;5029422;28;20023;-60
2021/08/27 10:54:07;;;;;;;123.30;12.85;;;19.40;68.50;;;;;;5047726;28;20103;-62
2021/08/27 10:56:44;;;;;;;114.28;12.35;;;19.40;68.70;;;;;;5042813;28;20040;-60
2021/08/27 10:59:11;;;;;;;90.18;9.73;;;19.40;68.90;;;;;;5058733;28;20082;-60
2021/08/27 11:01:38;;;;;;;63.80;8.52;;;19.40;69.00;;;;;;5035439;28;20046;-60
2021/08/27 11:04:03;;;;;;;52.67;7.28;;;19.50;68.60;;;;;;5036669;28;20044;-60
2021/08/27 11:06:30;;;;;;;80.60;9.05;;;19.50;68.50;;;;;;5061842;28;20381;-60
2021/08/27 11:09:26;;;;;;;99.93;12.15;;;19.50;68.90;;;;;;5042352;28;20043;-60
2021/08/27 11:12:18;;;;;;;87.95;10.50;;;19.60;68.70;;;;;;5034624;28;20025;-60
2021/08/27 11:14:54;;;;;;;86.05;9.65;;;19.70;67.90;;;;;;5027400;28;20032;-60
2021/08/27 11:17:19;;;;;;;72.30;9.60;;;19.80;67.40;;;;;;5037713;28;20211;-60
2021/08/27 11:19:58;;;;;;;129.50;12.95;;;19.80;66.90;;;;;;5040070;28;20119;-59
2021/08/27 11:22:30;;;;;;;87.43;11.85;;;19.90;67.30;;;;;;5060316;28;20099;-60
2021/08/27 11:25:09;;;;;;;76.13;10.43;;;19.90;67.40;;;;;;5026461;28;20800;-60
2021/08/27 11:27:35;;;;;;;71.50;8.35;;;19.90;67.40;;;;;;5056646;28;20113;-60
2021/08/27 11:30:37;;;;;;;73.30;8.93;;;19.90;67.20;;;;;;5039437;28;20052;-60
2021/08/27 11:33:03;;;;;;;78.90;9.55;;;20.00;67.00;;;;;;4968859;28;20490;-60
2021/08/27 11:35:29;;;;;;;91.50;8.48;;;20.00;67.20;;;;;;5038322;28;20075;-60
2021/08/27 11:38:05;;;;;;;64.10;8.65;;;20.00;67.20;;;;;;5025243;28;20160;-60
2021/08/27 11:40:31;;;;;;;79.78;9.95;;;20.00;67.40;;;;;;5046924;28;20048;-60
2021/08/27 11:42:56;;;;;;;106.72;11.88;;;20.00;67.30;;;;;;5059955;28;20017;-60
2021/08/27 11:45:23;;;;;;;103.85;9.98;;;20.10;67.10;;;;;;5029554;28;20074;-60
2021/08/27 11:47:51;;;;;;;102.75;11.95;;;20.20;66.50;;;;;;5046738;28;20056;-60
2021/08/27 11:50:38;;;;;;;128.93;12.27;;;20.20;66.10;;;;;;5020965;28;20029;-60
2021/08/27 11:53:04;;;;;;;137.48;15.88;;;20.30;65.70;;;;;;5058032;28;20056;-60
2021/08/27 11:55:30;;;;;;;122.45;12.85;;;20.30;65.40;;;;;;5041773;28;20190;-60
2021/08/27 11:58:00;;;;;;;104.68;11.40;;;20.30;64.90;;;;;;5060579;28;20041;-62
2021/08/27 12:00:37;;;;;;;109.75;10.88;;;20.40;64.60;;;;;;5022369;28;20043;-60
2021/08/27 12:03:03;;;;;;;78.57;9.30;;;20.40;64.30;;;;;;5058812;28;20133;-60
2021/08/27 12:05:29;;;;;;;75.93;8.43;;;20.40;63.50;;;;;;5040050;28;20161;-60
2021/08/27 12:07:59;;;;;;;74.00;9.45;;;20.40;63.00;;;;;;5046854;28;20434;-60
2021/08/27 12:10:26;;;;;;;66.75;8.00;;;20.40;63.30;;;;;;5037289;28;20028;-60
2021/08/27 12:12:53;;;;;;;82.78;10.35;;;20.40;63.90;;;;;;5018816;28;20037;-60
2021/08/27 12:15:23;;;;;;;117.72;11.52;;;20.40;64.50;;;;;;5014098;28;20227;-60
2021/08/27 12:17:53;;;;;;;94.10;10.00;;;20.40;64.50;;;;;;5025038;28;20108;-60
2021/08/27 12:20:19;;;;;;;88.82;9.43;;;20.40;65.30;;;;;;5032572;28;20451;-61
2021/08/27 12:22:45;;;;;;;77.68;9.52;;;20.40;65.40;;;;;;5037822;28;20112;-60
2021/08/27 12:25:45;;;;;;;146.07;15.77;;;20.40;65.90;;;;;;5021852;28;20037;-60
2021/08/27 12:28:12;;;;;;;175.10;18.42;;;20.50;66.40;;;;;;5023104;28;20449;-60
2021/08/27 12:30:46;;;;;;;70.90;8.80;;;20.50;66.30;;;;;;5022322;28;20439;-60
2021/08/27 12:33:11;;;;;;;132.43;12.75;;;20.60;66.30;;;;;;5021064;28;20198;-60
2021/08/27 12:35:37;;;;;;;292.35;27.40;;;20.60;66.50;;;;;;5021851;28;20488;-60
2021/08/27 12:38:03;;;;;;;121.20;13.10;;;20.60;66.60;;;;;;5006364;28;20421;-62
2021/08/27 12:40:29;;;;;;;149.63;14.95;;;20.60;66.20;;;;;;5025308;28;20024;-60